Valparaiso, FL (32580)

12:45 PM CDT on August 31, 2015 (GMT -0500)
Pear Tree Observatory | | Change Station
CLOSE
Current Station
Personal Weather Station
Location: Valparaiso, FL
Elevation: 80 ft
Nearby Weather Stations

Elev 80 ft 30.51 °N, 86.50 °W | Updated 13 seconds ago

Scattered Clouds
Scattered Clouds
91.8 °F
Feels Like 98 °F
N
0.0
Wind Variable Wind from NNW
Gusts 6.0 mph

Today
High -- | Low -- °F
--% Chance of Precip.
Yesterday
High -- | Low -- °F
Precip. -- in
6:21 AM 7:10 PM
Waning Gibbous, 94% visible
Pressure 30.09 in
Visibility 10.0 miles
Clouds Scattered Clouds 5000 ft
Heat Index 98 °F
Dew Point 70 °F
Humidity 50%
Rainfall 0.00 in
Snow Depth Not available.
UV 9 out of 12
Pollen 7.90 out of 12
Air Quality Not available.
Flu Activity Not available.
METAR KVPS 311655Z 04007KT 10SM SCT050 33/19 A3007 RMK AO2A SLP188 T03260192 $
Pressure 30.09 in
Visibility 10.0 miles
Clouds Scattered Clouds 5000 ft
Heat Index 98 °F
Dew Point 70 °F
Humidity 50%
Rainfall 0.00 in
Snow Depth Not available.
UV 9 out of 12
Pollen 7.90 out of 12
Air Quality Not available.
Flu Activity Not available.
METAR KVPS 311655Z 04007KT 10SM SCT050 33/19 A3007 RMK AO2A SLP188 T03260192 $

10-Day Weather Forecast

×

Almanac

Astronomy

Aug. 31, 2015 Rise Set
Actual Time
Civil Twilight
Nautical Twilight
Astronomical Twilight
Moon
Length of Visible Light
Length of Day
Tomorrow will be .
, % of the Moon is Illuminated

Today's Extremes

State Highs State Lows

Community

WunderPhotos

Upload Photos

1,851,328 photos uploaded!

WunderBlogs® & News

Nearby

Air Quality

  Air Quality AQ Index Pollutant
Not available.

Snow Depth

Station Depth Elevation

Earthquake Activity

City Distance Mag. Time & Date
Minimum magnitude displayed is 2.5.

Coastal Water Temperatures

Place Temperature

Stations

Nearby Weather Stations

Station Location Temp. Windchill Dew Point Humidity Wind Precip. Elev Updated Type